Time;durP1;ratioP1;P1;durP2;ratioP2;P2;SDS_P1;SDS_P2;PMS_P1;PMS_P2;Temp;Humidity;BMP_temperature;BMP_pressure;BME280_temperature;BME280_humidity;BME280_pressure;Samples;Min_cycle;Max_cycle;Signal;HPM_P1;HPM_P2
2023/08/17 00:00:32;;;;;;;4.70;2.80;;;;;;;27.73;38.06;100785.62;108089;1284;22044;-69
2023/08/17 00:02:58;;;;;;;5.00;3.30;;;;;;;27.68;38.15;100784.77;108196;1279;23479;-58
2023/08/17 00:05:24;;;;;;;4.50;3.40;;;;;;;27.62;38.28;100785.06;108160;1273;22000;-69
2023/08/17 00:07:49;;;;;;;5.50;2.70;;;;;;;27.55;38.38;100783.13;108151;1284;22171;-57
2023/08/17 00:10:15;;;;;;;4.10;2.60;;;;;;;27.49;38.60;100782.48;108159;1284;21975;-58
2023/08/17 00:12:40;;;;;;;5.80;2.70;;;;;;;27.45;38.62;100778.07;108153;1285;21996;-58
2023/08/17 00:15:06;;;;;;;4.90;3.30;;;;;;;27.40;38.71;100781.84;108149;1284;21991;-59
2023/08/17 00:17:32;;;;;;;5.30;3.10;;;;;;;27.36;38.71;100780.70;108234;1284;21994;-58
2023/08/17 00:19:58;;;;;;;4.20;3.00;;;;;;;27.34;38.89;100785.95;108168;1285;21989;-58
2023/08/17 00:22:23;;;;;;;4.00;3.00;;;;;;;27.29;38.99;100784.11;108180;1284;22048;-69
2023/08/17 00:24:49;;;;;;;4.00;2.90;;;;;;;27.25;39.04;100785.13;108137;1284;22449;-69
2023/08/17 00:27:15;;;;;;;4.50;3.10;;;;;;;27.22;39.12;100783.61;108171;1283;22002;-58
2023/08/17 00:29:40;;;;;;;6.40;2.80;;;;;;;27.21;39.14;100783.30;108196;1280;23437;-57
2023/08/17 00:32:06;;;;;;;3.90;2.50;;;;;;;27.21;39.31;100784.96;108168;1285;21999;-69
2023/08/17 00:34:31;;;;;;;7.60;3.30;;;;;;;27.21;39.40;100783.29;108182;1281;21988;-69
2023/08/17 00:36:57;;;;;;;3.70;2.90;;;;;;;27.19;39.36;100783.26;108140;1279;22027;-69
2023/08/17 00:39:22;;;;;;;4.20;2.90;;;;;;;27.17;39.34;100782.17;108164;1285;21977;-69
2023/08/17 00:41:48;;;;;;;6.30;3.10;;;;;;;27.14;39.53;100775.05;108188;1283;21989;-69
2023/08/17 00:44:13;;;;;;;3.60;2.70;;;;;;;27.10;39.54;100774.02;108132;1284;21986;-58
2023/08/17 00:46:39;;;;;;;4.60;2.60;;;;;;;27.09;39.49;100770.19;108137;1285;21990;-58
2023/08/17 00:49:06;;;;;;;4.50;2.90;;;;;;;27.08;39.78;100769.86;108173;1285;22026;-69
2023/08/17 00:51:31;;;;;;;5.30;3.10;;;;;;;27.08;39.83;100770.04;108287;1279;22026;-69
2023/08/17 00:53:58;;;;;;;6.20;3.10;;;;;;;27.09;39.93;100772.89;108300;1284;22156;-58
2023/08/17 00:56:24;;;;;;;5.20;2.80;;;;;;;27.09;40.05;100769.60;108190;1280;21999;-58
2023/08/17 00:58:49;;;;;;;8.70;3.10;;;;;;;27.09;40.01;100769.80;108125;1284;21986;-70
2023/08/17 01:01:15;;;;;;;7.80;3.30;;;;;;;27.08;40.05;100768.59;108206;1283;21992;-58
2023/08/17 01:03:41;;;;;;;5.70;3.20;;;;;;;27.10;40.09;100764.55;108222;1281;24156;-58
2023/08/17 01:06:07;;;;;;;4.50;2.90;;;;;;;27.10;40.22;100757.50;108218;1275;21993;-58
2023/08/17 01:08:33;;;;;;;4.40;2.90;;;;;;;27.10;40.27;100758.61;108168;1280;21989;-58
2023/08/17 01:11:17;;;;;;;5.00;2.40;;;;;;;27.09;40.44;100760.47;108163;1285;21989;-58
2023/08/17 01:13:53;;;;;;;3.60;2.60;;;;;;;27.09;40.34;100761.16;108138;1284;199192;-58
2023/08/17 01:16:43;;;;;;;4.00;2.90;;;;;;;27.09;40.37;100757.05;108148;1280;21998;-69
2023/08/17 01:19:09;;;;;;;5.00;2.70;;;;;;;27.09;40.42;100758.64;108077;1285;21983;-69
2023/08/17 01:21:38;;;;;;;4.60;3.30;;;;;;;27.09;40.53;100757.05;108106;1282;22010;-58
2023/08/17 01:24:05;;;;;;;4.60;3.30;;;;;;;27.07;40.52;100753.78;108215;1273;21986;-58
2023/08/17 01:26:30;;;;;;;5.10;3.50;;;;;;;27.05;40.46;100750.49;108191;1280;21998;-58
2023/08/17 01:28:56;;;;;;;4.20;2.80;;;;;;;27.03;40.52;100752.61;108199;1284;22040;-69
2023/08/17 01:31:31;;;;;;;6.20;3.30;;;;;;;27.00;40.58;100750.45;108066;1284;21987;-58
2023/08/17 01:34:00;;;;;;;6.70;2.70;;;;;;;26.96;40.58;100751.69;108200;1284;21993;-69
2023/08/17 01:36:26;;;;;;;6.50;3.20;;;;;;;26.93;40.67;100745.83;108151;1284;23147;-58
2023/08/17 01:38:52;;;;;;;10.20;3.00;;;;;;;26.90;40.83;100746.08;108183;1284;21988;-70
2023/08/17 01:41:18;;;;;;;5.60;3.20;;;;;;;26.86;40.81;100745.23;108176;1277;22026;-58
2023/08/17 01:43:47;;;;;;;4.80;2.80;;;;;;;26.84;40.81;100741.07;108169;1284;21989;-58
2023/08/17 01:46:15;;;;;;;6.40;2.90;;;;;;;26.82;40.90;100736.90;108246;1281;21998;-61
2023/08/17 01:48:41;;;;;;;6.70;3.00;;;;;;;26.79;40.97;100731.84;108271;1278;22000;-58
2023/08/17 01:51:08;;;;;;;7.30;3.80;;;;;;;26.75;41.22;100731.80;108291;1274;22029;-57
2023/08/17 01:53:33;;;;;;;4.60;3.30;;;;;;;26.69;41.34;100725.02;108251;1283;21994;-58
2023/08/17 01:55:59;;;;;;;5.50;3.10;;;;;;;26.65;41.32;100719.63;108271;1283;22448;-70
2023/08/17 01:58:24;;;;;;;4.80;3.00;;;;;;;26.58;41.43;100713.45;108192;1281;21983;-66
2023/08/17 02:00:50;;;;;;;5.00;3.10;;;;;;;26.53;41.65;100711.45;108251;1283;21995;-58
2023/08/17 02:03:16;;;;;;;3.80;2.90;;;;;;;26.47;41.74;100711.60;108252;1284;22463;-58
2023/08/17 02:05:45;;;;;;;3.70;3.10;;;;;;;26.41;41.93;100710.55;108240;1284;22023;-70
2023/08/17 02:08:11;;;;;;;5.90;3.90;;;;;;;26.38;42.07;100714.23;108257;1278;23644;-58
2023/08/17 02:10:36;;;;;;;7.10;3.10;;;;;;;26.37;42.09;100715.17;108253;1274;21974;-69
2023/08/17 02:13:02;;;;;;;8.10;3.90;;;;;;;26.35;42.25;100719.59;108251;1284;21989;-57
2023/08/17 02:15:28;;;;;;;4.80;3.00;;;;;;;26.35;42.26;100722.73;108234;1283;21999;-69
2023/08/17 02:17:54;;;;;;;7.40;4.00;;;;;;;26.33;42.34;100717.09;108259;1284;22004;-57
2023/08/17 02:20:19;;;;;;;6.30;3.20;;;;;;;26.31;42.44;100717.05;108230;1283;22025;-58
2023/08/17 02:22:45;;;;;;;3.90;3.10;;;;;;;26.29;42.45;100715.17;108262;1283;21999;-69
2023/08/17 02:25:10;;;;;;;5.60;3.60;;;;;;;26.26;42.57;100715.95;108273;1284;23504;-57
2023/08/17 02:27:36;;;;;;;5.40;2.90;;;;;;;26.23;42.67;100717.11;108176;1283;21989;-58
2023/08/17 02:30:03;;;;;;;6.30;3.60;;;;;;;26.17;42.73;100718.40;108268;1277;21976;-70
2023/08/17 02:32:29;;;;;;;8.80;3.10;;;;;;;26.13;42.98;100716.54;108267;1280;21997;-58
2023/08/17 02:34:55;;;;;;;7.20;3.80;;;;;;;26.10;42.89;100716.88;108271;1282;22003;-69
2023/08/17 02:37:20;;;;;;;5.40;3.20;;;;;;;26.09;42.92;100720.41;108312;1283;21989;-58
2023/08/17 02:39:46;;;;;;;5.50;3.20;;;;;;;26.04;43.08;100720.77;108322;1284;22002;-69
2023/08/17 02:42:11;;;;;;;7.40;3.20;;;;;;;26.02;43.11;100719.52;108339;1278;24370;-69
2023/08/17 02:44:37;;;;;;;5.70;3.20;;;;;;;25.99;43.21;100717.88;108206;1283;22016;-69
2023/08/17 02:47:02;;;;;;;5.40;3.50;;;;;;;25.96;43.37;100718.46;108215;1284;21981;-69
2023/08/17 02:49:28;;;;;;;8.80;3.20;;;;;;;25.93;43.49;100719.25;108235;1277;22029;-68
2023/08/17 02:51:54;;;;;;;10.40;4.40;;;;;;;25.89;43.60;100722.71;108253;1284;21997;-57
2023/08/17 02:54:19;;;;;;;5.10;3.50;;;;;;;25.86;43.84;100719.91;108253;1283;21990;-69
2023/08/17 02:56:45;;;;;;;13.50;3.80;;;;;;;25.80;44.09;100721.92;108299;1281;23047;-70
2023/08/17 02:59:10;;;;;;;4.60;3.20;;;;;;;25.75;44.46;100723.38;108252;1280;21987;-69
2023/08/17 03:01:36;;;;;;;6.60;3.10;;;;;;;25.70;44.38;100725.33;108207;1277;21986;-58
2023/08/17 03:04:01;;;;;;;6.40;3.50;;;;;;;25.65;44.51;100725.15;108249;1280;21980;-69
2023/08/17 03:06:27;;;;;;;10.00;3.90;;;;;;;25.62;44.74;100726.23;108250;1284;21994;-58
2023/08/17 03:08:53;;;;;;;12.00;3.70;;;;;;;25.61;45.27;100731.31;108241;1274;21989;-69
2023/08/17 03:11:20;;;;;;;6.10;2.90;;;;;;;25.58;45.33;100734.64;108272;1283;21996;-58
2023/08/17 03:13:47;;;;;;;10.80;3.60;;;;;;;25.54;45.67;100731.14;108337;1283;22153;-58
2023/08/17 03:16:14;;;;;;;9.60;3.60;;;;;;;25.51;45.83;100730.27;108275;1284;21996;-71
2023/08/17 03:18:39;;;;;;;7.20;3.20;;;;;;;25.49;45.57;100732.73;108253;1283;21987;-59
2023/08/17 03:21:05;;;;;;;7.70;3.50;;;;;;;25.50;45.78;100732.84;108237;1283;21989;-71
2023/08/17 03:23:32;;;;;;;5.90;3.60;;;;;;;25.50;46.04;100733.39;108307;1283;21989;-70
2023/08/17 03:25:58;;;;;;;9.20;4.00;;;;;;;25.48;45.89;100734.55;108241;1277;21991;-59
2023/08/17 03:28:25;;;;;;;7.10;3.00;;;;;;;25.50;45.84;100734.11;108244;1284;21986;-70
2023/08/17 03:30:50;;;;;;;7.00;3.30;;;;;;;25.52;45.90;100733.20;108250;1276;21987;-59
2023/08/17 03:33:16;;;;;;;5.70;3.30;;;;;;;25.56;45.78;100737.06;108178;1283;22005;-60
2023/08/17 03:35:41;;;;;;;7.90;3.60;;;;;;;25.60;45.87;100741.29;108288;1281;22307;-59
2023/08/17 03:38:07;;;;;;;13.00;3.40;;;;;;;25.65;45.90;100739.84;108242;1280;22025;-59
2023/08/17 03:40:32;;;;;;;10.80;4.10;;;;;;;25.69;46.06;100740.49;108250;1283;21956;-70
2023/08/17 03:42:58;;;;;;;8.80;3.70;;;;;;;25.72;46.06;100739.58;108197;1283;21999;-71
2023/08/17 03:45:24;;;;;;;11.80;4.00;;;;;;;25.75;45.96;100742.58;108236;1284;21996;-58
2023/08/17 03:47:49;;;;;;;7.50;3.30;;;;;;;25.81;46.01;100740.03;108282;1285;21995;-70
2023/08/17 03:50:15;;;;;;;9.10;3.40;;;;;;;25.87;46.14;100736.71;108185;1283;22002;-58
2023/08/17 03:52:40;;;;;;;8.10;4.00;;;;;;;25.92;46.10;100735.83;108281;1283;21998;-58
2023/08/17 03:55:07;;;;;;;9.40;4.10;;;;;;;25.98;46.17;100735.23;108277;1273;21992;-58
2023/08/17 03:57:33;;;;;;;5.10;3.30;;;;;;;26.03;46.36;100735.95;108332;1280;21984;-70
2023/08/17 03:59:59;;;;;;;7.30;3.80;;;;;;;26.07;46.23;100735.84;108262;1283;23669;-71
2023/08/17 04:02:24;;;;;;;6.00;3.40;;;;;;;26.12;46.21;100736.00;108219;1280;21998;-58
2023/08/17 04:04:50;;;;;;;8.50;3.40;;;;;;;26.19;46.25;100736.95;108227;1277;21985;-70
2023/08/17 04:07:22;;;;;;;5.60;3.60;;;;;;;26.26;46.24;100736.65;108282;1284;21987;-71
2023/08/17 04:09:48;;;;;;;8.80;3.70;;;;;;;26.34;46.41;100734.50;108311;1283;22530;-59
2023/08/17 04:12:14;;;;;;;5.60;3.90;;;;;;;26.40;46.34;100733.09;108309;1284;21991;-71
2023/08/17 04:14:39;;;;;;;5.90;3.70;;;;;;;26.47;46.61;100734.41;108248;1279;21993;-58
2023/08/17 04:17:05;;;;;;;8.00;3.90;;;;;;;26.52;46.51;100734.98;108277;1280;21989;-58
2023/08/17 04:19:30;;;;;;;4.30;3.60;;;;;;;26.57;46.46;100732.26;108293;1281;21986;-71
2023/08/17 04:21:56;;;;;;;8.10;4.10;;;;;;;26.65;46.56;100737.43;108221;1280;22011;-59
2023/08/17 04:24:21;;;;;;;8.80;4.20;;;;;;;26.72;46.57;100740.29;108272;1284;21989;-59
2023/08/17 04:26:47;;;;;;;6.00;4.40;;;;;;;26.80;46.48;100738.48;108303;1277;21991;-70
2023/08/17 04:29:13;;;;;;;9.30;5.00;;;;;;;26.87;46.73;100734.69;108260;1283;21987;-71
2023/08/17 04:31:38;;;;;;;7.80;5.10;;;;;;;26.96;46.56;100728.14;108258;1280;21990;-70
2023/08/17 04:34:04;;;;;;;9.90;4.70;;;;;;;27.04;46.50;100730.61;108265;1283;22454;-59
2023/08/17 04:36:29;;;;;;;5.80;4.10;;;;;;;27.10;46.49;100726.16;108299;1283;21987;-58
2023/08/17 04:38:55;;;;;;;5.80;4.10;;;;;;;27.18;46.49;100725.91;108271;1274;21996;-70
2023/08/17 04:41:21;;;;;;;8.10;4.10;;;;;;;27.27;46.59;100727.59;108219;1278;22014;-59
2023/08/17 04:43:49;;;;;;;9.20;4.60;;;;;;;27.37;46.49;100728.81;108249;1284;21989;-59
2023/08/17 04:46:14;;;;;;;6.30;4.20;;;;;;;27.46;46.47;100726.80;108215;1280;21996;-70
2023/08/17 04:48:40;;;;;;;7.80;4.40;;;;;;;27.55;46.26;100724.84;108252;1283;21998;-59
2023/08/17 04:51:06;;;;;;;5.70;4.30;;;;;;;27.65;46.18;100727.35;108260;1283;22024;-71
2023/08/17 04:53:31;;;;;;;6.20;4.60;;;;;;;27.74;46.12;100726.27;108242;1284;21996;-71
2023/08/17 04:55:58;;;;;;;7.10;4.40;;;;;;;27.84;46.20;100726.98;108235;1283;22166;-70
2023/08/17 04:58:24;;;;;;;7.20;3.90;;;;;;;27.94;46.05;100726.18;108282;1280;23634;-69
2023/08/17 05:00:49;;;;;;;9.00;4.10;;;;;;;28.04;46.11;100728.42;108251;1276;21999;-60
2023/08/17 05:03:15;;;;;;;5.30;4.10;;;;;;;28.17;46.03;100730.64;108261;1283;21988;-71
2023/08/17 05:05:41;;;;;;;6.00;4.60;;;;;;;28.33;45.83;100731.89;108279;1283;21984;-70
2023/08/17 05:08:06;;;;;;;8.40;4.80;;;;;;;28.45;45.66;100729.98;108258;1283;21986;-59
2023/08/17 05:10:32;;;;;;;8.20;4.70;;;;;;;28.56;45.43;100728.73;108232;1278;21999;-70
2023/08/17 05:12:58;;;;;;;6.30;4.80;;;;;;;28.68;45.45;100730.30;108224;1283;22037;-59
2023/08/17 05:15:23;;;;;;;9.20;4.70;;;;;;;28.79;45.36;100730.45;108249;1278;22024;-70
2023/08/17 05:17:49;;;;;;;11.80;5.10;;;;;;;28.92;45.35;100728.72;108254;1277;23732;-59
2023/08/17 05:20:14;;;;;;;9.90;5.00;;;;;;;29.05;45.40;100728.84;108267;1280;21994;-59
2023/08/17 05:22:40;;;;;;;13.70;5.60;;;;;;;29.19;45.19;100732.89;108262;1279;21987;-59
2023/08/17 05:25:06;;;;;;;6.90;4.80;;;;;;;29.36;45.15;100732.91;108254;1277;21996;-59
2023/08/17 05:27:32;;;;;;;7.30;4.80;;;;;;;29.48;44.92;100734.38;108276;1277;22002;-59
2023/08/17 05:29:57;;;;;;;8.10;5.30;;;;;;;29.47;44.94;100731.05;108270;1280;22043;-70
2023/08/17 05:32:23;;;;;;;8.50;5.20;;;;;;;29.56;45.00;100728.86;108303;1283;21989;-59
2023/08/17 05:34:48;;;;;;;6.30;4.90;;;;;;;29.63;44.81;100727.30;108284;1283;21987;-71
2023/08/17 05:37:15;;;;;;;7.60;5.10;;;;;;;29.73;44.86;100727.95;108290;1277;21999;-59
2023/08/17 05:39:41;;;;;;;7.30;5.20;;;;;;;29.84;44.67;100729.27;108323;1283;22026;-59
2023/08/17 05:42:07;;;;;;;6.20;4.70;;;;;;;29.98;44.68;100726.29;108220;1283;22026;-71
2023/08/17 05:44:32;;;;;;;6.00;5.10;;;;;;;30.13;44.67;100725.84;108237;1280;22464;-71
2023/08/17 05:46:58;;;;;;;8.90;5.50;;;;;;;30.28;44.28;100725.05;108208;1280;23596;-66
2023/08/17 05:49:24;;;;;;;7.10;5.10;;;;;;;30.42;44.04;100730.14;108309;1284;21986;-59
2023/08/17 05:51:49;;;;;;;8.40;4.90;;;;;;;30.54;43.86;100728.36;108362;1283;21993;-71
2023/08/17 05:54:15;;;;;;;11.30;5.70;;;;;;;30.67;43.74;100724.63;108219;1277;24392;-59
2023/08/17 05:56:49;;;;;;;13.30;5.90;;;;;;;30.79;43.66;100723.66;108243;1283;23100;-61
2023/08/17 05:59:16;;;;;;;8.30;4.90;;;;;;;30.91;43.56;100718.76;108310;1283;22997;-58
2023/08/17 06:01:42;;;;;;;8.80;5.50;;;;;;;31.06;43.43;100717.23;108306;1283;21987;-60
2023/08/17 06:04:07;;;;;;;6.80;5.20;;;;;;;31.15;43.10;100717.98;108176;1283;21976;-59
2023/08/17 06:06:34;;;;;;;7.40;5.10;;;;;;;31.23;43.01;100717.25;108142;1280;21997;-71
2023/08/17 06:08:59;;;;;;;9.60;5.00;;;;;;;31.32;42.80;100722.58;108231;1283;21987;-59
2023/08/17 06:11:25;;;;;;;7.40;5.30;;;;;;;31.43;42.69;100718.48;108237;1283;21986;-58
2023/08/17 06:13:50;;;;;;;7.30;5.10;;;;;;;31.63;42.71;100716.96;108156;1280;21987;-58
2023/08/17 06:16:16;;;;;;;8.40;5.60;;;;;;;31.79;42.31;100716.51;108165;1273;22149;-58
2023/08/17 06:18:41;;;;;;;8.30;5.20;;;;;;;31.93;42.30;100715.88;108308;1280;21999;-60
2023/08/17 06:21:08;;;;;;;6.40;5.70;;;;;;;32.12;42.30;100717.06;108175;1280;21995;-71
2023/08/17 06:23:33;;;;;;;6.80;5.10;;;;;;;32.31;41.80;100716.52;108179;1280;22172;-59
2023/08/17 06:25:59;;;;;;;8.50;5.00;;;;;;;32.41;41.62;100718.86;108181;1275;21986;-71
2023/08/17 06:28:25;;;;;;;8.60;4.90;;;;;;;32.50;41.32;100718.27;108066;1274;22123;-59
2023/08/17 06:30:53;;;;;;;7.00;5.20;;;;;;;32.58;41.23;100713.48;108150;1280;21983;-60
2023/08/17 06:33:19;;;;;;;8.00;5.40;;;;;;;32.74;41.32;100712.10;108252;1283;21991;-70
2023/08/17 06:35:45;;;;;;;6.30;5.20;;;;;;;32.96;41.10;100710.64;108168;1283;22004;-60
2023/08/17 06:38:10;;;;;;;8.10;5.40;;;;;;;33.16;40.89;100706.55;108184;1284;22026;-60
2023/08/17 06:40:36;;;;;;;9.00;5.60;;;;;;;33.37;40.66;100707.86;108171;1283;21987;-71
2023/08/17 06:43:01;;;;;;;9.70;4.90;;;;;;;33.53;40.39;100707.17;108119;1280;21998;-59
2023/08/17 06:45:27;;;;;;;8.90;5.10;;;;;;;33.71;40.16;100706.23;108187;1279;21985;-70
2023/08/17 06:47:53;;;;;;;6.50;5.40;;;;;;;33.83;39.88;100706.30;108163;1280;21986;-71
2023/08/17 06:50:18;;;;;;;7.50;4.60;;;;;;;33.92;39.62;100706.69;108126;1284;23051;-59
2023/08/17 06:52:44;;;;;;;7.00;5.10;;;;;;;34.06;39.72;100704.83;108133;1273;21961;-70
2023/08/17 06:55:12;;;;;;;7.60;5.10;;;;;;;34.25;39.56;100705.38;108108;1284;22000;-59
2023/08/17 06:57:38;;;;;;;9.40;4.80;;;;;;;34.43;39.32;100699.58;108139;1279;22028;-59
2023/08/17 07:00:07;;;;;;;6.60;4.90;;;;;;;34.65;39.04;100704.37;108141;1284;21991;-59
2023/08/17 07:02:34;;;;;;;12.10;5.30;;;;;;;34.90;39.02;100705.79;108288;1283;22240;-59
2023/08/17 07:05:00;;;;;;;6.60;4.80;;;;;;;35.19;38.93;100702.77;108272;1279;21996;-71
2023/08/17 07:07:26;;;;;;;8.50;5.60;;;;;;;35.44;38.55;100703.66;108176;1278;23754;-60
2023/08/17 07:09:52;;;;;;;8.90;5.10;;;;;;;35.62;38.08;100703.35;108147;1283;22253;-59
2023/08/17 07:12:19;;;;;;;10.10;5.10;;;;;;;35.76;37.87;100702.06;108138;1276;22022;-70
2023/08/17 07:14:45;;;;;;;8.50;5.10;;;;;;;35.87;37.59;100694.60;108161;1283;21973;-72
2023/08/17 07:17:10;;;;;;;9.30;5.10;;;;;;;35.98;37.15;100693.34;108168;1280;24409;-60
2023/08/17 07:19:36;;;;;;;9.60;5.00;;;;;;;36.08;37.02;100696.10;108270;1282;21991;-69
2023/08/17 07:22:01;;;;;;;6.20;5.20;;;;;;;36.13;36.91;100695.77;108235;1280;21999;-58
2023/08/17 07:24:27;;;;;;;8.50;5.60;;;;;;;36.19;36.70;100694.10;108142;1278;21976;-69
2023/08/17 07:26:53;;;;;;;5.60;4.60;;;;;;;36.26;36.49;100694.73;108145;1279;22151;-69
2023/08/17 07:29:18;;;;;;;7.10;5.10;;;;;;;36.37;36.65;100691.79;108107;1281;21997;-69
2023/08/17 07:31:44;;;;;;;7.70;4.70;;;;;;;36.65;36.45;100688.65;108132;1283;21987;-69
2023/08/17 07:34:10;;;;;;;10.00;5.40;;;;;;;36.88;35.94;100689.96;108130;1279;21993;-70
2023/08/17 07:36:35;;;;;;;7.40;5.10;;;;;;;37.04;35.69;100689.84;108157;1282;22171;-69
2023/08/17 07:39:01;;;;;;;6.40;4.30;;;;;;;37.19;35.56;100688.31;108136;1281;21987;-68
2023/08/17 07:41:27;;;;;;;6.30;4.70;;;;;;;37.47;35.63;100684.98;108146;1280;23622;-68
2023/08/17 07:43:52;;;;;;;7.10;4.80;;;;;;;37.80;35.50;100682.27;108188;1283;21999;-69
2023/08/17 07:46:18;;;;;;;7.80;5.00;;;;;;;38.06;35.11;100679.91;108106;1277;22007;-68
2023/08/17 07:48:43;;;;;;;5.80;4.30;;;;;;;38.20;34.77;100678.08;108162;1283;22043;-67
2023/08/17 07:51:09;;;;;;;9.10;4.80;;;;;;;38.32;34.77;100678.98;108160;1280;22004;-69
2023/08/17 07:53:35;;;;;;;10.00;5.10;;;;;;;38.48;34.37;100678.78;108359;1284;22026;-69
2023/08/17 07:56:00;;;;;;;8.10;5.00;;;;;;;38.57;34.09;100678.95;108276;1283;21982;-69
2023/08/17 07:58:26;;;;;;;7.30;4.80;;;;;;;38.62;33.73;100683.23;108275;1277;23623;-59
2023/08/17 08:00:51;;;;;;;8.50;5.20;;;;;;;38.66;33.54;100679.33;108217;1283;21981;-69
2023/08/17 08:03:17;;;;;;;8.70;4.90;;;;;;;38.66;33.55;100682.79;108280;1276;21997;-61
2023/08/17 08:05:42;;;;;;;7.00;4.80;;;;;;;38.83;33.52;100679.90;108270;1283;21984;-71
2023/08/17 08:08:08;;;;;;;7.60;4.50;;;;;;;39.19;33.44;100673.39;108272;1283;24396;-59
2023/08/17 08:10:34;;;;;;;6.50;4.20;;;;;;;39.59;33.46;100677.38;108320;1280;22048;-60
2023/08/17 08:12:59;;;;;;;6.30;4.90;;;;;;;39.96;32.96;100676.58;108278;1275;22080;-69
2023/08/17 08:15:25;;;;;;;7.20;5.10;;;;;;;40.12;32.42;100677.56;108211;1280;22011;-70
2023/08/17 08:17:50;;;;;;;10.70;5.20;;;;;;;40.21;32.37;100678.30;108201;1283;22167;-59
2023/08/17 08:20:16;;;;;;;9.10;4.90;;;;;;;40.30;32.43;100681.10;108192;1276;21987;-59
2023/08/17 08:22:42;;;;;;;5.80;5.20;;;;;;;40.50;32.26;100682.07;109109;1283;22471;-68
2023/08/17 08:25:08;;;;;;;8.00;4.70;;;;;;;40.75;32.07;100679.23;108079;1283;22034;-70
2023/08/17 08:27:33;;;;;;;7.60;4.50;;;;;;;40.97;31.84;100676.74;108325;1273;21989;-69
2023/08/17 08:29:59;;;;;;;5.90;4.50;;;;;;;41.23;31.73;100681.48;108287;1283;22233;-59
2023/08/17 08:32:25;;;;;;;6.20;4.50;;;;;;;41.45;31.32;100677.79;108319;1275;21985;-59
2023/08/17 08:34:50;;;;;;;7.80;4.40;;;;;;;41.66;31.28;100678.39;108290;1276;21989;-59
2023/08/17 08:37:16;;;;;;;9.70;5.00;;;;;;;41.88;30.85;100677.20;108288;1279;21993;-58
2023/08/17 08:39:52;;;;;;;5.50;4.20;;;;;;;42.09;30.68;100676.05;108283;1277;22041;-68
2023/08/17 08:42:18;;;;;;;6.30;4.50;;;;;;;42.19;30.44;100672.19;108281;1277;23726;-58
2023/08/17 08:44:44;;;;;;;7.50;4.80;;;;;;;42.31;30.21;100674.20;108105;1284;22001;-60
2023/08/17 08:47:11;;;;;;;6.90;4.70;;;;;;;42.24;29.77;100674.52;108302;1276;22159;-58
2023/08/17 08:49:39;;;;;;;7.70;4.40;;;;;;;42.18;29.97;100673.54;108271;1270;21988;-69
2023/08/17 08:52:04;;;;;;;5.80;4.00;;;;;;;42.34;30.01;100676.41;108278;1278;22003;-70
2023/08/17 08:54:30;;;;;;;6.30;4.00;;;;;;;42.56;29.51;100675.28;108063;1284;21989;-70
2023/08/17 08:56:59;;;;;;;6.60;4.30;;;;;;;42.73;29.55;100672.52;108148;1280;22023;-69
2023/08/17 08:59:26;;;;;;;6.30;4.60;;;;;;;42.77;29.42;100673.29;108110;1284;23824;-59
2023/08/17 09:01:52;;;;;;;5.00;4.30;;;;;;;42.88;29.40;100676.59;108056;1284;21994;-59
2023/08/17 09:04:18;;;;;;;7.50;4.20;;;;;;;43.11;29.26;100676.88;108178;1283;22097;-59
2023/08/17 09:06:43;;;;;;;5.00;4.10;;;;;;;43.26;28.72;100672.06;108120;1284;21985;-59
2023/08/17 09:09:09;;;;;;;4.40;3.70;;;;;;;43.36;28.70;100673.23;108263;1280;21989;-59
2023/08/17 09:11:34;;;;;;;6.00;3.90;;;;;;;43.56;28.76;100671.59;108165;1283;22451;-59
2023/08/17 09:14:00;;;;;;;5.90;4.40;;;;;;;43.79;28.20;100668.20;108193;1278;21991;-59
2023/08/17 09:16:27;;;;;;;8.20;4.70;;;;;;;43.93;27.33;100668.54;108184;1278;22004;-70
2023/08/17 09:18:53;;;;;;;6.70;4.60;;;;;;;43.83;27.52;100670.86;108308;1276;21983;-68
2023/08/17 09:21:22;;;;;;;6.40;3.80;;;;;;;43.63;27.48;100665.41;108343;1273;21992;-69
2023/08/17 09:23:55;;;;;;;6.80;4.20;;;;;;;43.47;27.70;100664.50;108258;1280;21991;-62
2023/08/17 09:26:24;;;;;;;8.90;4.30;;;;;;;43.46;27.74;100657.48;108335;1277;21997;-70
2023/08/17 09:28:56;;;;;;;7.30;3.90;;;;;;;43.62;27.83;100655.58;108306;1276;21995;-68
2023/08/17 09:31:23;;;;;;;5.50;4.10;;;;;;;43.94;27.37;100655.46;108271;1272;21991;-69
2023/08/17 09:33:52;;;;;;;6.40;3.90;;;;;;;44.11;27.12;100655.90;108319;1284;22008;-59
2023/08/17 09:36:24;;;;;;;7.20;4.10;;;;;;;44.29;27.08;100657.38;108284;1276;22033;-59
2023/08/17 09:38:50;;;;;;;6.60;3.60;;;;;;;44.34;26.72;100653.80;108295;1280;21984;-60
2023/08/17 09:41:17;;;;;;;4.50;3.60;;;;;;;44.32;26.51;100650.68;108327;1276;21996;-60
2023/08/17 09:43:43;;;;;;;6.00;4.00;;;;;;;44.46;26.67;100652.68;108261;1277;22021;-61
2023/08/17 09:46:09;;;;;;;5.10;3.60;;;;;;;44.71;26.17;100647.75;108095;1283;21986;-71
2023/08/17 09:48:34;;;;;;;4.60;3.50;;;;;;;44.95;26.36;100647.88;108318;1280;24362;-59
2023/08/17 09:51:01;;;;;;;5.20;3.90;;;;;;;45.18;26.03;100643.85;108301;1276;21987;-70
2023/08/17 09:53:27;;;;;;;5.50;3.90;;;;;;;45.36;25.83;100644.91;108268;1283;23644;-59
2023/08/17 09:55:53;;;;;;;5.60;3.40;;;;;;;45.53;25.59;100641.77;108218;1282;21995;-59
2023/08/17 09:58:19;;;;;;;6.20;3.70;;;;;;;45.74;25.38;100642.60;108262;1273;22530;-65
2023/08/17 10:00:46;;;;;;;8.10;3.60;;;;;;;45.91;25.04;100641.09;108247;1279;23618;-59
2023/08/17 10:03:16;;;;;;;5.30;3.50;;;;;;;46.07;25.03;100646.36;108208;1276;21988;-69
2023/08/17 10:05:44;;;;;;;6.20;3.90;;;;;;;46.21;24.55;100640.15;108150;1279;22078;-69
2023/08/17 10:08:12;;;;;;;7.50;4.10;;;;;;;46.21;24.46;100638.98;108312;1284;23270;-60
2023/08/17 10:10:40;;;;;;;7.10;3.90;;;;;;;46.23;24.61;100638.52;108079;1276;21991;-70
2023/08/17 10:13:08;;;;;;;6.30;3.80;;;;;;;46.34;24.41;100643.60;108065;1283;22974;-60
2023/08/17 10:15:37;;;;;;;6.20;3.20;;;;;;;46.45;24.38;100640.58;108364;1283;21991;-70
2023/08/17 10:18:21;;;;;;;5.30;3.40;;;;;;;46.59;24.21;100643.36;108366;1284;23067;-69
2023/08/17 10:20:59;;;;;;;4.20;3.40;;;;;;;46.67;24.23;100641.16;108130;1283;23106;-59
2023/08/17 10:23:25;;;;;;;4.90;3.40;;;;;;;46.84;24.09;100637.75;108410;1278;21992;-70
2023/08/17 10:25:51;;;;;;;5.10;3.30;;;;;;;47.03;23.84;100636.19;108334;1283;23637;-71
2023/08/17 10:28:16;;;;;;;8.40;3.70;;;;;;;47.20;23.75;100631.48;108156;1280;23622;-59
2023/08/17 10:30:42;;;;;;;6.00;2.90;;;;;;;47.40;23.53;100631.35;108257;1277;21986;-70
2023/08/17 10:33:08;;;;;;;6.80;3.60;;;;;;;47.57;23.44;100633.57;108051;1283;21995;-70
2023/08/17 10:35:33;;;;;;;3.90;3.00;;;;;;;47.67;23.20;100629.20;108075;1279;21990;-59
2023/08/17 10:37:59;;;;;;;6.90;3.30;;;;;;;47.76;23.10;100631.11;108104;1279;22155;-59
2023/08/17 10:40:27;;;;;;;6.60;3.30;;;;;;;47.87;22.97;100628.28;108128;1284;22039;-69
2023/08/17 10:42:58;;;;;;;5.40;3.60;;;;;;;47.82;22.78;100618.63;108261;1279;23664;-59
2023/08/17 10:45:31;;;;;;;5.10;3.40;;;;;;;47.72;22.73;100615.79;108302;1277;21996;-59
2023/08/17 10:48:09;;;;;;;6.00;3.30;;;;;;;47.73;22.87;100615.76;108289;1283;21989;-59
2023/08/17 10:50:36;;;;;;;6.40;3.70;;;;;;;47.83;22.83;100619.48;108234;1276;21996;-59
2023/08/17 10:53:09;;;;;;;8.70;3.70;;;;;;;47.88;22.69;100622.21;108353;1276;21987;-60
2023/08/17 10:55:35;;;;;;;5.30;3.40;;;;;;;47.93;22.51;100627.89;108294;1283;22024;-70
2023/08/17 10:58:01;;;;;;;3.60;3.20;;;;;;;47.93;21.80;100627.58;108314;1282;21983;-60
2023/08/17 11:00:34;;;;;;;4.50;3.20;;;;;;;47.55;21.70;100621.39;108286;1279;22007;-71
2023/08/17 11:03:05;;;;;;;8.60;3.50;;;;;;;47.41;22.02;100618.61;108191;1279;24330;-60
2023/08/17 11:05:40;;;;;;;6.60;4.00;;;;;;;47.56;22.10;100615.16;108337;1283;21991;-59
2023/08/17 11:08:06;;;;;;;5.90;3.70;;;;;;;47.67;21.87;100614.59;108346;1278;22002;-59
2023/08/17 11:10:33;;;;;;;8.60;3.80;;;;;;;47.70;21.90;100616.72;108300;1278;21984;-70
2023/08/17 11:13:02;;;;;;;5.50;3.40;;;;;;;47.63;21.66;100612.64;108314;1278;22006;-59